Nash, North Dakota
Current Conditions -  °F | °C
As of 7:15 AM on Thursday 18 Dec 2014 (Local Time) from K2C8 Reporting Station
Clear Clear  
Wind Chill: -10°   Ceiling: Unl
Heat Index:   Visibility: 9mi
Dew Point:   Wind: 6mph
Humidity: 92%   Direction: 180°S
Pressure: 30.24"   Gusts: NA
Location:  48.4031°N, 97.4245°W
Report Text: K2C8 181315Z AUTO 18005KT 9SM CLR M17/M18 A3024 RMK AO2
Loading
Personal Weather Stations






























Interactive Weather Map New forecast layout! Learn more

10-Day Weather Forecast

Advertisements
Track Severe Weather on mobile